sensor_id;sensor_type;location;lat;lon;timestamp;P1;durP1;ratioP1;P2;durP2;ratioP2
57385;SDS011;71829;56.976;21.958;2023-08-06T00:01:36;4.43;;;1.13;;
57385;SDS011;71829;56.976;21.958;2023-08-06T00:04:04;3.85;;;1.00;;
57385;SDS011;71829;56.976;21.958;2023-08-06T00:06:31;5.63;;;1.10;;
57385;SDS011;71829;56.976;21.958;2023-08-06T00:08:59;4.25;;;1.85;;
57385;SDS011;71829;56.976;21.958;2023-08-06T00:11:26;4.63;;;1.95;;
57385;SDS011;71829;56.976;21.958;2023-08-06T00:13:54;5.78;;;3.60;;
57385;SDS011;71829;56.976;21.958;2023-08-06T00:16:22;5.38;;;2.15;;
57385;SDS011;71829;56.976;21.958;2023-08-06T00:18:49;5.07;;;1.15;;
57385;SDS011;71829;56.976;21.958;2023-08-06T00:21:17;5.10;;;1.83;;
57385;SDS011;71829;56.976;21.958;2023-08-06T00:23:44;5.57;;;1.17;;
57385;SDS011;71829;56.976;21.958;2023-08-06T00:26:12;5.80;;;1.60;;
57385;SDS011;71829;56.976;21.958;2023-08-06T00:28:39;4.80;;;2.80;;
57385;SDS011;71829;56.976;21.958;2023-08-06T00:31:07;4.80;;;1.95;;
57385;SDS011;71829;56.976;21.958;2023-08-06T00:33:34;7.18;;;1.90;;
57385;SDS011;71829;56.976;21.958;2023-08-06T00:36:02;3.85;;;0.90;;
57385;SDS011;71829;56.976;21.958;2023-08-06T00:38:29;9.98;;;1.70;;
57385;SDS011;71829;56.976;21.958;2023-08-06T00:40:57;5.35;;;2.88;;
57385;SDS011;71829;56.976;21.958;2023-08-06T00:43:24;5.40;;;2.70;;
57385;SDS011;71829;56.976;21.958;2023-08-06T00:45:52;6.13;;;2.22;;
57385;SDS011;71829;56.976;21.958;2023-08-06T00:48:19;7.03;;;1.52;;
57385;SDS011;71829;56.976;21.958;2023-08-06T00:50:47;4.72;;;1.50;;
57385;SDS011;71829;56.976;21.958;2023-08-06T00:53:15;4.82;;;2.42;;
57385;SDS011;71829;56.976;21.958;2023-08-06T00:55:43;4.47;;;3.08;;
57385;SDS011;71829;56.976;21.958;2023-08-06T00:58:12;6.50;;;3.60;;
57385;SDS011;71829;56.976;21.958;2023-08-06T01:00:39;7.50;;;1.10;;
57385;SDS011;71829;56.976;21.958;2023-08-06T01:03:07;4.05;;;1.58;;
57385;SDS011;71829;56.976;21.958;2023-08-06T01:05:35;5.25;;;3.80;;
57385;SDS011;71829;56.976;21.958;2023-08-06T01:08:15;8.68;;;2.05;;
57385;SDS011;71829;56.976;21.958;2023-08-06T01:16:05;4.90;;;2.85;;
57385;SDS011;71829;56.976;21.958;2023-08-06T01:18:33;4.18;;;2.25;;
57385;SDS011;71829;56.976;21.958;2023-08-06T01:21:01;6.07;;;2.53;;
57385;SDS011;71829;56.976;21.958;2023-08-06T01:23:29;4.70;;;1.48;;
57385;SDS011;71829;56.976;21.958;2023-08-06T01:28:40;6.18;;;2.33;;
57385;SDS011;71829;56.976;21.958;2023-08-06T01:31:10;7.72;;;1.42;;
57385;SDS011;71829;56.976;21.958;2023-08-06T01:33:38;5.95;;;1.38;;
57385;SDS011;71829;56.976;21.958;2023-08-06T01:36:09;4.68;;;1.15;;
57385;SDS011;71829;56.976;21.958;2023-08-06T01:38:36;4.00;;;1.40;;
57385;SDS011;71829;56.976;21.958;2023-08-06T01:41:04;5.40;;;1.33;;
57385;SDS011;71829;56.976;21.958;2023-08-06T01:43:31;5.57;;;1.33;;
57385;SDS011;71829;56.976;21.958;2023-08-06T01:45:59;3.63;;;1.65;;
57385;SDS011;71829;56.976;21.958;2023-08-06T01:48:26;5.15;;;2.17;;
57385;SDS011;71829;56.976;21.958;2023-08-06T01:50:54;4.78;;;2.03;;
57385;SDS011;71829;56.976;21.958;2023-08-06T01:53:21;6.25;;;1.55;;
57385;SDS011;71829;56.976;21.958;2023-08-06T01:55:49;4.15;;;2.55;;
57385;SDS011;71829;56.976;21.958;2023-08-06T01:58:17;4.38;;;1.65;;
57385;SDS011;71829;56.976;21.958;2023-08-06T02:00:44;5.13;;;2.65;;
57385;SDS011;71829;56.976;21.958;2023-08-06T02:03:12;4.78;;;2.78;;
57385;SDS011;71829;56.976;21.958;2023-08-06T02:05:39;4.30;;;1.55;;
57385;SDS011;71829;56.976;21.958;2023-08-06T02:08:07;5.30;;;1.85;;
57385;SDS011;71829;56.976;21.958;2023-08-06T02:10:34;4.85;;;3.03;;
57385;SDS011;71829;56.976;21.958;2023-08-06T02:13:02;5.47;;;2.63;;
57385;SDS011;71829;56.976;21.958;2023-08-06T02:15:29;4.43;;;2.30;;
57385;SDS011;71829;56.976;21.958;2023-08-06T02:17:57;4.43;;;2.53;;
57385;SDS011;71829;56.976;21.958;2023-08-06T02:20:24;5.88;;;2.33;;
57385;SDS011;71829;56.976;21.958;2023-08-06T02:22:52;5.72;;;2.45;;
57385;SDS011;71829;56.976;21.958;2023-08-06T02:25:19;5.82;;;3.05;;
57385;SDS011;71829;56.976;21.958;2023-08-06T02:27:47;5.25;;;3.65;;
57385;SDS011;71829;56.976;21.958;2023-08-06T02:30:14;5.03;;;2.40;;
57385;SDS011;71829;56.976;21.958;2023-08-06T02:32:42;5.32;;;2.53;;
57385;SDS011;71829;56.976;21.958;2023-08-06T02:35:09;4.47;;;1.63;;
57385;SDS011;71829;56.976;21.958;2023-08-06T02:37:37;4.65;;;1.55;;
57385;SDS011;71829;56.976;21.958;2023-08-06T02:40:04;8.15;;;3.33;;
57385;SDS011;71829;56.976;21.958;2023-08-06T02:42:32;5.22;;;2.60;;
57385;SDS011;71829;56.976;21.958;2023-08-06T02:44:59;5.45;;;1.42;;
57385;SDS011;71829;56.976;21.958;2023-08-06T02:47:27;7.05;;;2.13;;
57385;SDS011;71829;56.976;21.958;2023-08-06T02:49:54;6.25;;;1.60;;
57385;SDS011;71829;56.976;21.958;2023-08-06T02:52:22;4.50;;;1.38;;
57385;SDS011;71829;56.976;21.958;2023-08-06T02:54:49;6.90;;;1.50;;
57385;SDS011;71829;56.976;21.958;2023-08-06T02:57:17;5.03;;;1.40;;
57385;SDS011;71829;56.976;21.958;2023-08-06T02:59:45;4.72;;;1.20;;
57385;SDS011;71829;56.976;21.958;2023-08-06T03:02:12;6.35;;;1.25;;
57385;SDS011;71829;56.976;21.958;2023-08-06T03:04:40;5.28;;;1.38;;
57385;SDS011;71829;56.976;21.958;2023-08-06T03:07:07;7.80;;;1.67;;
57385;SDS011;71829;56.976;21.958;2023-08-06T03:09:35;5.07;;;1.25;;
57385;SDS011;71829;56.976;21.958;2023-08-06T03:12:02;4.75;;;1.20;;
57385;SDS011;71829;56.976;21.958;2023-08-06T03:14:30;5.28;;;1.95;;
57385;SDS011;71829;56.976;21.958;2023-08-06T03:16:57;6.35;;;1.75;;
57385;SDS011;71829;56.976;21.958;2023-08-06T03:19:25;4.35;;;2.63;;
57385;SDS011;71829;56.976;21.958;2023-08-06T03:21:52;5.72;;;2.83;;
57385;SDS011;71829;56.976;21.958;2023-08-06T03:24:20;6.18;;;1.85;;
57385;SDS011;71829;56.976;21.958;2023-08-06T03:26:48;4.03;;;1.33;;
57385;SDS011;71829;56.976;21.958;2023-08-06T03:29:15;6.78;;;3.35;;
57385;SDS011;71829;56.976;21.958;2023-08-06T03:31:43;5.15;;;3.13;;
57385;SDS011;71829;56.976;21.958;2023-08-06T03:34:10;5.32;;;3.13;;
57385;SDS011;71829;56.976;21.958;2023-08-06T03:36:38;6.60;;;3.47;;
57385;SDS011;71829;56.976;21.958;2023-08-06T03:39:05;5.15;;;3.80;;
57385;SDS011;71829;56.976;21.958;2023-08-06T03:41:33;4.78;;;3.03;;
57385;SDS011;71829;56.976;21.958;2023-08-06T03:44:00;5.20;;;3.20;;
57385;SDS011;71829;56.976;21.958;2023-08-06T03:49:01;12.85;;;4.13;;
57385;SDS011;71829;56.976;21.958;2023-08-06T03:51:28;6.05;;;1.48;;
57385;SDS011;71829;56.976;21.958;2023-08-06T03:53:56;6.07;;;2.92;;
57385;SDS011;71829;56.976;21.958;2023-08-06T03:56:23;4.72;;;1.40;;
57385;SDS011;71829;56.976;21.958;2023-08-06T03:58:51;5.95;;;2.25;;
57385;SDS011;71829;56.976;21.958;2023-08-06T04:01:18;5.93;;;2.38;;
57385;SDS011;71829;56.976;21.958;2023-08-06T04:03:46;4.80;;;1.30;;
57385;SDS011;71829;56.976;21.958;2023-08-06T04:06:13;4.75;;;1.83;;
57385;SDS011;71829;56.976;21.958;2023-08-06T04:08:41;4.45;;;1.15;;
57385;SDS011;71829;56.976;21.958;2023-08-06T04:11:08;5.07;;;1.10;;
57385;SDS011;71829;56.976;21.958;2023-08-06T04:13:36;6.10;;;1.52;;
57385;SDS011;71829;56.976;21.958;2023-08-06T04:16:03;5.22;;;2.60;;
57385;SDS011;71829;56.976;21.958;2023-08-06T04:18:31;4.20;;;2.22;;
57385;SDS011;71829;56.976;21.958;2023-08-06T04:20:59;4.63;;;1.25;;
57385;SDS011;71829;56.976;21.958;2023-08-06T04:23:28;4.72;;;1.10;;
57385;SDS011;71829;56.976;21.958;2023-08-06T04:25:56;5.15;;;2.53;;
57385;SDS011;71829;56.976;21.958;2023-08-06T04:28:24;4.07;;;1.50;;
57385;SDS011;71829;56.976;21.958;2023-08-06T04:30:51;5.85;;;1.27;;
57385;SDS011;71829;56.976;21.958;2023-08-06T04:33:20;7.85;;;3.25;;
57385;SDS011;71829;56.976;21.958;2023-08-06T04:35:53;5.75;;;1.67;;
57385;SDS011;71829;56.976;21.958;2023-08-06T04:38:22;6.82;;;1.85;;
57385;SDS011;71829;56.976;21.958;2023-08-06T04:40:50;7.25;;;2.72;;
57385;SDS011;71829;56.976;21.958;2023-08-06T04:43:18;4.88;;;1.35;;
57385;SDS011;71829;56.976;21.958;2023-08-06T04:45:53;5.50;;;2.67;;
57385;SDS011;71829;56.976;21.958;2023-08-06T04:48:21;8.85;;;2.28;;
57385;SDS011;71829;56.976;21.958;2023-08-06T04:50:49;5.63;;;1.52;;
57385;SDS011;71829;56.976;21.958;2023-08-06T04:53:17;8.30;;;2.20;;
57385;SDS011;71829;56.976;21.958;2023-08-06T04:55:44;4.35;;;2.05;;
57385;SDS011;71829;56.976;21.958;2023-08-06T04:58:12;6.80;;;2.30;;
57385;SDS011;71829;56.976;21.958;2023-08-06T05:00:40;4.63;;;1.73;;
57385;SDS011;71829;56.976;21.958;2023-08-06T05:03:07;5.68;;;2.58;;
57385;SDS011;71829;56.976;21.958;2023-08-06T05:05:35;5.05;;;1.45;;
57385;SDS011;71829;56.976;21.958;2023-08-06T05:08:03;4.05;;;1.45;;
57385;SDS011;71829;56.976;21.958;2023-08-06T05:10:30;4.97;;;2.33;;
57385;SDS011;71829;56.976;21.958;2023-08-06T05:12:58;4.95;;;1.10;;
57385;SDS011;71829;56.976;21.958;2023-08-06T05:15:25;7.20;;;1.48;;
57385;SDS011;71829;56.976;21.958;2023-08-06T05:17:53;6.03;;;2.63;;
57385;SDS011;71829;56.976;21.958;2023-08-06T05:20:20;5.80;;;3.08;;
57385;SDS011;71829;56.976;21.958;2023-08-06T05:22:48;4.53;;;1.70;;
57385;SDS011;71829;56.976;21.958;2023-08-06T05:25:15;5.15;;;1.77;;
57385;SDS011;71829;56.976;21.958;2023-08-06T05:27:43;4.40;;;1.33;;
57385;SDS011;71829;56.976;21.958;2023-08-06T05:30:10;4.97;;;1.20;;
57385;SDS011;71829;56.976;21.958;2023-08-06T05:32:38;6.95;;;3.17;;
57385;SDS011;71829;56.976;21.958;2023-08-06T05:35:05;6.60;;;1.40;;
57385;SDS011;71829;56.976;21.958;2023-08-06T05:37:33;5.05;;;2.60;;
57385;SDS011;71829;56.976;21.958;2023-08-06T05:40:01;5.88;;;2.45;;
57385;SDS011;71829;56.976;21.958;2023-08-06T05:42:30;5.78;;;2.00;;
57385;SDS011;71829;56.976;21.958;2023-08-06T05:44:58;5.68;;;2.10;;
57385;SDS011;71829;56.976;21.958;2023-08-06T05:47:25;6.28;;;2.20;;
57385;SDS011;71829;56.976;21.958;2023-08-06T05:49:53;5.88;;;1.95;;
57385;SDS011;71829;56.976;21.958;2023-08-06T05:52:20;7.47;;;3.28;;
57385;SDS011;71829;56.976;21.958;2023-08-06T05:54:47;8.82;;;3.20;;
57385;SDS011;71829;56.976;21.958;2023-08-06T05:57:15;8.85;;;5.22;;
57385;SDS011;71829;56.976;21.958;2023-08-06T05:59:43;8.00;;;3.92;;
57385;SDS011;71829;56.976;21.958;2023-08-06T06:02:10;8.82;;;3.95;;
57385;SDS011;71829;56.976;21.958;2023-08-06T06:04:38;9.25;;;5.47;;
57385;SDS011;71829;56.976;21.958;2023-08-06T06:07:06;7.43;;;4.93;;
57385;SDS011;71829;56.976;21.958;2023-08-06T06:09:34;9.07;;;3.42;;
57385;SDS011;71829;56.976;21.958;2023-08-06T06:12:01;8.20;;;2.55;;
57385;SDS011;71829;56.976;21.958;2023-08-06T06:14:29;7.93;;;3.80;;
57385;SDS011;71829;56.976;21.958;2023-08-06T06:16:56;7.20;;;2.75;;
57385;SDS011;71829;56.976;21.958;2023-08-06T06:19:24;7.35;;;4.07;;
57385;SDS011;71829;56.976;21.958;2023-08-06T06:21:54;6.47;;;2.85;;
57385;SDS011;71829;56.976;21.958;2023-08-06T06:24:24;8.45;;;2.63;;
57385;SDS011;71829;56.976;21.958;2023-08-06T06:26:51;5.68;;;1.60;;
57385;SDS011;71829;56.976;21.958;2023-08-06T06:29:19;5.47;;;3.40;;
57385;SDS011;71829;56.976;21.958;2023-08-06T06:31:46;5.65;;;4.38;;
57385;SDS011;71829;56.976;21.958;2023-08-06T06:34:14;8.90;;;2.28;;
57385;SDS011;71829;56.976;21.958;2023-08-06T06:36:41;4.97;;;1.98;;
57385;SDS011;71829;56.976;21.958;2023-08-06T06:39:09;6.90;;;3.15;;
57385;SDS011;71829;56.976;21.958;2023-08-06T06:41:36;8.75;;;1.98;;
57385;SDS011;71829;56.976;21.958;2023-08-06T06:44:04;5.65;;;2.08;;
57385;SDS011;71829;56.976;21.958;2023-08-06T06:46:31;8.00;;;2.72;;
57385;SDS011;71829;56.976;21.958;2023-08-06T06:48:59;4.82;;;1.90;;
57385;SDS011;71829;56.976;21.958;2023-08-06T06:51:26;5.18;;;2.67;;
57385;SDS011;71829;56.976;21.958;2023-08-06T06:53:54;9.30;;;3.95;;
57385;SDS011;71829;56.976;21.958;2023-08-06T06:56:21;7.78;;;2.83;;
57385;SDS011;71829;56.976;21.958;2023-08-06T06:58:49;5.28;;;2.50;;
57385;SDS011;71829;56.976;21.958;2023-08-06T07:01:16;6.25;;;2.25;;
57385;SDS011;71829;56.976;21.958;2023-08-06T07:03:44;12.07;;;2.25;;
57385;SDS011;71829;56.976;21.958;2023-08-06T07:06:13;5.85;;;2.22;;
57385;SDS011;71829;56.976;21.958;2023-08-06T07:08:42;7.10;;;2.45;;
57385;SDS011;71829;56.976;21.958;2023-08-06T07:11:09;5.35;;;2.92;;
57385;SDS011;71829;56.976;21.958;2023-08-06T07:13:37;6.82;;;2.88;;
57385;SDS011;71829;56.976;21.958;2023-08-06T07:16:04;5.22;;;1.92;;
57385;SDS011;71829;56.976;21.958;2023-08-06T07:18:34;4.78;;;1.80;;
57385;SDS011;71829;56.976;21.958;2023-08-06T07:21:02;4.47;;;2.47;;
57385;SDS011;71829;56.976;21.958;2023-08-06T07:23:29;8.18;;;2.35;;
57385;SDS011;71829;56.976;21.958;2023-08-06T07:25:57;7.47;;;3.35;;
57385;SDS011;71829;56.976;21.958;2023-08-06T07:28:24;5.55;;;1.85;;
57385;SDS011;71829;56.976;21.958;2023-08-06T07:30:52;6.65;;;2.78;;
57385;SDS011;71829;56.976;21.958;2023-08-06T07:33:20;5.63;;;1.75;;
57385;SDS011;71829;56.976;21.958;2023-08-06T07:35:48;6.00;;;1.92;;
57385;SDS011;71829;56.976;21.958;2023-08-06T07:38:15;8.13;;;3.10;;
57385;SDS011;71829;56.976;21.958;2023-08-06T07:40:44;4.70;;;3.13;;
57385;SDS011;71829;56.976;21.958;2023-08-06T07:43:13;8.15;;;3.17;;
57385;SDS011;71829;56.976;21.958;2023-08-06T07:45:41;15.68;;;3.72;;
57385;SDS011;71829;56.976;21.958;2023-08-06T07:48:08;6.47;;;1.92;;
57385;SDS011;71829;56.976;21.958;2023-08-06T07:50:36;4.97;;;2.33;;
57385;SDS011;71829;56.976;21.958;2023-08-06T07:53:03;9.48;;;4.65;;
57385;SDS011;71829;56.976;21.958;2023-08-06T07:55:31;7.75;;;2.10;;
57385;SDS011;71829;56.976;21.958;2023-08-06T07:57:58;15.68;;;3.03;;
57385;SDS011;71829;56.976;21.958;2023-08-06T08:00:26;8.10;;;2.55;;
57385;SDS011;71829;56.976;21.958;2023-08-06T08:02:53;10.05;;;2.75;;
57385;SDS011;71829;56.976;21.958;2023-08-06T08:05:21;7.88;;;2.53;;
57385;SDS011;71829;56.976;21.958;2023-08-06T08:07:49;8.68;;;2.95;;
57385;SDS011;71829;56.976;21.958;2023-08-06T08:10:16;6.85;;;2.35;;
57385;SDS011;71829;56.976;21.958;2023-08-06T08:12:44;5.15;;;2.38;;
57385;SDS011;71829;56.976;21.958;2023-08-06T08:15:14;4.68;;;2.15;;
57385;SDS011;71829;56.976;21.958;2023-08-06T08:17:41;5.00;;;2.72;;
57385;SDS011;71829;56.976;21.958;2023-08-06T08:20:09;5.47;;;3.30;;
57385;SDS011;71829;56.976;21.958;2023-08-06T08:22:36;6.13;;;1.95;;
57385;SDS011;71829;56.976;21.958;2023-08-06T08:25:04;6.28;;;1.50;;
57385;SDS011;71829;56.976;21.958;2023-08-06T08:27:31;5.68;;;2.67;;
57385;SDS011;71829;56.976;21.958;2023-08-06T08:29:59;7.18;;;1.70;;
57385;SDS011;71829;56.976;21.958;2023-08-06T08:32:26;7.03;;;2.25;;
57385;SDS011;71829;56.976;21.958;2023-08-06T08:34:54;7.05;;;2.35;;
57385;SDS011;71829;56.976;21.958;2023-08-06T08:37:23;11.23;;;2.58;;
57385;SDS011;71829;56.976;21.958;2023-08-06T08:39:50;12.32;;;5.18;;
57385;SDS011;71829;56.976;21.958;2023-08-06T08:42:18;11.25;;;8.02;;
57385;SDS011;71829;56.976;21.958;2023-08-06T08:44:46;4.65;;;2.17;;
57385;SDS011;71829;56.976;21.958;2023-08-06T08:47:13;4.88;;;2.65;;
57385;SDS011;71829;56.976;21.958;2023-08-06T08:49:42;7.20;;;3.45;;
57385;SDS011;71829;56.976;21.958;2023-08-06T08:52:10;7.65;;;3.08;;
57385;SDS011;71829;56.976;21.958;2023-08-06T08:54:39;6.30;;;4.55;;
57385;SDS011;71829;56.976;21.958;2023-08-06T08:57:07;6.10;;;3.35;;
57385;SDS011;71829;56.976;21.958;2023-08-06T08:59:34;6.78;;;2.95;;
57385;SDS011;71829;56.976;21.958;2023-08-06T09:02:02;82.68;;;43.75;;
57385;SDS011;71829;56.976;21.958;2023-08-06T09:04:30;18.35;;;10.48;;
57385;SDS011;71829;56.976;21.958;2023-08-06T09:07:00;9.45;;;4.28;;
57385;SDS011;71829;56.976;21.958;2023-08-06T09:09:29;8.20;;;5.13;;
57385;SDS011;71829;56.976;21.958;2023-08-06T09:11:59;8.25;;;3.42;;
57385;SDS011;71829;56.976;21.958;2023-08-06T09:14:28;7.93;;;3.83;;
57385;SDS011;71829;56.976;21.958;2023-08-06T09:16:56;9.75;;;6.38;;
57385;SDS011;71829;56.976;21.958;2023-08-06T09:19:24;10.02;;;5.65;;
57385;SDS011;71829;56.976;21.958;2023-08-06T09:21:52;37.38;;;24.98;;
57385;SDS011;71829;56.976;21.958;2023-08-06T09:24:20;12.63;;;9.65;;
57385;SDS011;71829;56.976;21.958;2023-08-06T09:26:48;14.35;;;9.07;;
57385;SDS011;71829;56.976;21.958;2023-08-06T09:29:23;21.30;;;11.48;;
57385;SDS011;71829;56.976;21.958;2023-08-06T09:31:50;12.63;;;5.95;;
57385;SDS011;71829;56.976;21.958;2023-08-06T09:34:22;12.27;;;10.63;;
57385;SDS011;71829;56.976;21.958;2023-08-06T09:36:51;11.40;;;7.43;;
57385;SDS011;71829;56.976;21.958;2023-08-06T09:39:19;10.68;;;6.85;;
57385;SDS011;71829;56.976;21.958;2023-08-06T09:41:47;11.85;;;9.43;;
57385;SDS011;71829;56.976;21.958;2023-08-06T09:44:15;10.80;;;6.13;;
57385;SDS011;71829;56.976;21.958;2023-08-06T09:46:47;12.05;;;7.85;;
57385;SDS011;71829;56.976;21.958;2023-08-06T09:49:16;31.27;;;18.95;;
57385;SDS011;71829;56.976;21.958;2023-08-06T09:51:43;48.15;;;31.40;;
57385;SDS011;71829;56.976;21.958;2023-08-06T09:54:14;56.35;;;32.55;;
57385;SDS011;71829;56.976;21.958;2023-08-06T09:56:53;43.83;;;28.20;;
57385;SDS011;71829;56.976;21.958;2023-08-06T09:59:24;67.82;;;33.67;;
57385;SDS011;71829;56.976;21.958;2023-08-06T10:01:52;14.77;;;9.20;;
57385;SDS011;71829;56.976;21.958;2023-08-06T10:04:22;35.45;;;16.70;;
57385;SDS011;71829;56.976;21.958;2023-08-06T10:06:56;20.70;;;13.07;;
57385;SDS011;71829;56.976;21.958;2023-08-06T10:09:24;17.15;;;9.50;;
57385;SDS011;71829;56.976;21.958;2023-08-06T10:11:51;23.55;;;10.77;;
57385;SDS011;71829;56.976;21.958;2023-08-06T10:14:28;16.52;;;8.25;;
57385;SDS011;71829;56.976;21.958;2023-08-06T10:16:57;15.98;;;9.48;;
57385;SDS011;71829;56.976;21.958;2023-08-06T10:19:25;18.13;;;8.52;;
57385;SDS011;71829;56.976;21.958;2023-08-06T10:22:12;14.23;;;7.32;;
57385;SDS011;71829;56.976;21.958;2023-08-06T10:24:53;14.60;;;7.35;;
57385;SDS011;71829;56.976;21.958;2023-08-06T10:27:22;13.15;;;7.57;;
57385;SDS011;71829;56.976;21.958;2023-08-06T10:29:50;15.70;;;9.30;;
57385;SDS011;71829;56.976;21.958;2023-08-06T10:32:17;10.60;;;6.18;;
57385;SDS011;71829;56.976;21.958;2023-08-06T10:34:58;14.07;;;7.45;;
57385;SDS011;71829;56.976;21.958;2023-08-06T10:37:36;12.48;;;7.20;;
57385;SDS011;71829;56.976;21.958;2023-08-06T10:40:06;17.02;;;7.53;;
57385;SDS011;71829;56.976;21.958;2023-08-06T10:42:38;13.65;;;8.90;;
57385;SDS011;71829;56.976;21.958;2023-08-06T10:45:15;15.27;;;7.07;;
57385;SDS011;71829;56.976;21.958;2023-08-06T10:47:43;15.00;;;7.90;;
57385;SDS011;71829;56.976;21.958;2023-08-06T10:50:21;14.43;;;7.88;;
57385;SDS011;71829;56.976;21.958;2023-08-06T10:52:57;16.08;;;10.73;;
57385;SDS011;71829;56.976;21.958;2023-08-06T10:55:26;15.43;;;11.68;;
57385;SDS011;71829;56.976;21.958;2023-08-06T10:57:54;13.55;;;7.57;;
57385;SDS011;71829;56.976;21.958;2023-08-06T11:00:22;14.05;;;9.55;;
57385;SDS011;71829;56.976;21.958;2023-08-06T11:02:51;14.95;;;7.63;;
57385;SDS011;71829;56.976;21.958;2023-08-06T11:05:19;14.07;;;8.25;;
57385;SDS011;71829;56.976;21.958;2023-08-06T11:07:46;14.73;;;8.25;;
57385;SDS011;71829;56.976;21.958;2023-08-06T11:10:15;14.35;;;8.63;;
57385;SDS011;71829;56.976;21.958;2023-08-06T11:12:43;16.23;;;9.93;;
57385;SDS011;71829;56.976;21.958;2023-08-06T11:15:11;15.00;;;11.80;;
57385;SDS011;71829;56.976;21.958;2023-08-06T11:17:39;13.40;;;10.55;;
57385;SDS011;71829;56.976;21.958;2023-08-06T11:20:07;15.05;;;11.25;;
57385;SDS011;71829;56.976;21.958;2023-08-06T11:22:35;16.83;;;11.18;;
57385;SDS011;71829;56.976;21.958;2023-08-06T11:25:03;14.82;;;13.32;;
57385;SDS011;71829;56.976;21.958;2023-08-06T11:27:31;13.02;;;9.15;;
57385;SDS011;71829;56.976;21.958;2023-08-06T11:29:58;17.17;;;13.00;;
57385;SDS011;71829;56.976;21.958;2023-08-06T11:32:26;15.50;;;10.77;;
57385;SDS011;71829;56.976;21.958;2023-08-06T11:34:54;14.13;;;9.32;;
57385;SDS011;71829;56.976;21.958;2023-08-06T11:37:22;12.70;;;8.95;;
57385;SDS011;71829;56.976;21.958;2023-08-06T11:39:52;16.23;;;11.43;;
57385;SDS011;71829;56.976;21.958;2023-08-06T11:42:20;14.82;;;10.82;;
57385;SDS011;71829;56.976;21.958;2023-08-06T11:44:48;14.93;;;9.57;;
57385;SDS011;71829;56.976;21.958;2023-08-06T11:47:16;14.23;;;9.35;;
57385;SDS011;71829;56.976;21.958;2023-08-06T11:49:48;15.40;;;13.48;;
57385;SDS011;71829;56.976;21.958;2023-08-06T11:52:19;15.10;;;12.43;;
57385;SDS011;71829;56.976;21.958;2023-08-06T11:54:47;17.25;;;13.15;;
57385;SDS011;71829;56.976;21.958;2023-08-06T11:57:26;15.07;;;13.48;;
57385;SDS011;71829;56.976;21.958;2023-08-06T11:59:58;13.98;;;11.43;;
57385;SDS011;71829;56.976;21.958;2023-08-06T12:02:32;15.75;;;14.15;;
57385;SDS011;71829;56.976;21.958;2023-08-06T12:05:12;13.70;;;9.25;;
57385;SDS011;71829;56.976;21.958;2023-08-06T12:07:41;14.35;;;11.15;;
57385;SDS011;71829;56.976;21.958;2023-08-06T12:10:09;15.40;;;10.68;;
57385;SDS011;71829;56.976;21.958;2023-08-06T12:12:36;14.57;;;8.32;;
57385;SDS011;71829;56.976;21.958;2023-08-06T12:15:05;12.63;;;10.80;;
57385;SDS011;71829;56.976;21.958;2023-08-06T12:17:33;14.75;;;13.23;;
57385;SDS011;71829;56.976;21.958;2023-08-06T12:20:01;11.95;;;8.45;;
57385;SDS011;71829;56.976;21.958;2023-08-06T12:22:31;12.73;;;11.52;;
57385;SDS011;71829;56.976;21.958;2023-08-06T12:25:03;13.30;;;8.88;;
57385;SDS011;71829;56.976;21.958;2023-08-06T12:27:35;11.80;;;7.72;;
57385;SDS011;71829;56.976;21.958;2023-08-06T12:30:02;13.40;;;9.48;;
57385;SDS011;71829;56.976;21.958;2023-08-06T12:32:30;13.15;;;10.23;;
57385;SDS011;71829;56.976;21.958;2023-08-06T12:34:57;12.82;;;11.57;;
57385;SDS011;71829;56.976;21.958;2023-08-06T12:37:25;12.48;;;9.98;;
57385;SDS011;71829;56.976;21.958;2023-08-06T12:39:53;10.20;;;8.05;;
57385;SDS011;71829;56.976;21.958;2023-08-06T12:42:20;12.27;;;11.00;;
57385;SDS011;71829;56.976;21.958;2023-08-06T12:44:49;15.70;;;10.40;;
57385;SDS011;71829;56.976;21.958;2023-08-06T12:47:16;16.35;;;12.90;;
57385;SDS011;71829;56.976;21.958;2023-08-06T12:49:44;13.80;;;12.40;;
57385;SDS011;71829;56.976;21.958;2023-08-06T12:52:12;17.60;;;13.35;;
57385;SDS011;71829;56.976;21.958;2023-08-06T12:54:41;14.48;;;12.98;;
57385;SDS011;71829;56.976;21.958;2023-08-06T12:57:12;10.18;;;8.07;;
57385;SDS011;71829;56.976;21.958;2023-08-06T12:59:39;11.45;;;8.57;;
57385;SDS011;71829;56.976;21.958;2023-08-06T13:02:08;10.48;;;8.63;;
57385;SDS011;71829;56.976;21.958;2023-08-06T13:04:36;12.05;;;9.55;;
57385;SDS011;71829;56.976;21.958;2023-08-06T13:07:07;10.52;;;8.50;;
57385;SDS011;71829;56.976;21.958;2023-08-06T13:09:35;10.77;;;8.88;;
57385;SDS011;71829;56.976;21.958;2023-08-06T13:12:02;11.50;;;8.98;;
57385;SDS011;71829;56.976;21.958;2023-08-06T13:14:32;14.35;;;13.05;;
57385;SDS011;71829;56.976;21.958;2023-08-06T13:17:00;12.30;;;8.80;;
57385;SDS011;71829;56.976;21.958;2023-08-06T13:19:28;11.05;;;8.82;;
57385;SDS011;71829;56.976;21.958;2023-08-06T13:22:02;13.27;;;11.90;;
57385;SDS011;71829;56.976;21.958;2023-08-06T13:24:31;11.05;;;9.63;;
57385;SDS011;71829;56.976;21.958;2023-08-06T13:26:59;12.07;;;9.80;;
57385;SDS011;71829;56.976;21.958;2023-08-06T13:29:26;15.13;;;13.70;;
57385;SDS011;71829;56.976;21.958;2023-08-06T13:31:54;12.55;;;11.27;;
57385;SDS011;71829;56.976;21.958;2023-08-06T13:34:21;10.07;;;8.43;;
57385;SDS011;71829;56.976;21.958;2023-08-06T13:36:49;15.10;;;12.30;;
57385;SDS011;71829;56.976;21.958;2023-08-06T13:39:16;10.60;;;8.13;;
57385;SDS011;71829;56.976;21.958;2023-08-06T13:41:44;11.20;;;9.80;;
57385;SDS011;71829;56.976;21.958;2023-08-06T13:44:11;14.15;;;12.65;;
57385;SDS011;71829;56.976;21.958;2023-08-06T13:46:41;10.48;;;8.30;;
57385;SDS011;71829;56.976;21.958;2023-08-06T13:49:08;11.65;;;9.75;;
57385;SDS011;71829;56.976;21.958;2023-08-06T13:51:36;11.55;;;9.35;;
57385;SDS011;71829;56.976;21.958;2023-08-06T13:54:04;12.25;;;10.18;;
57385;SDS011;71829;56.976;21.958;2023-08-06T13:56:32;11.38;;;8.68;;
57385;SDS011;71829;56.976;21.958;2023-08-06T13:59:00;11.77;;;9.68;;
57385;SDS011;71829;56.976;21.958;2023-08-06T14:01:28;11.70;;;9.90;;
57385;SDS011;71829;56.976;21.958;2023-08-06T14:04:14;13.95;;;9.45;;
57385;SDS011;71829;56.976;21.958;2023-08-06T14:06:42;14.20;;;12.80;;
57385;SDS011;71829;56.976;21.958;2023-08-06T14:09:09;16.17;;;10.98;;
57385;SDS011;71829;56.976;21.958;2023-08-06T14:11:40;13.15;;;10.80;;
57385;SDS011;71829;56.976;21.958;2023-08-06T14:14:08;15.05;;;11.30;;
57385;SDS011;71829;56.976;21.958;2023-08-06T14:16:35;13.02;;;9.55;;
57385;SDS011;71829;56.976;21.958;2023-08-06T14:19:03;12.85;;;8.50;;
57385;SDS011;71829;56.976;21.958;2023-08-06T14:21:30;12.15;;;9.32;;
57385;SDS011;71829;56.976;21.958;2023-08-06T14:23:57;12.07;;;9.95;;
57385;SDS011;71829;56.976;21.958;2023-08-06T14:26:24;14.23;;;10.05;;
57385;SDS011;71829;56.976;21.958;2023-08-06T14:28:51;13.68;;;11.15;;
57385;SDS011;71829;56.976;21.958;2023-08-06T14:31:21;11.70;;;8.82;;
57385;SDS011;71829;56.976;21.958;2023-08-06T14:33:48;12.27;;;10.23;;
57385;SDS011;71829;56.976;21.958;2023-08-06T14:36:15;11.68;;;9.93;;
57385;SDS011;71829;56.976;21.958;2023-08-06T14:38:42;11.95;;;9.48;;
57385;SDS011;71829;56.976;21.958;2023-08-06T14:41:24;18.30;;;9.15;;
57385;SDS011;71829;56.976;21.958;2023-08-06T14:43:51;10.98;;;8.80;;